sensor_id;sensor_type;location;lat;lon;timestamp;P1;P2;P0
47709;PMS7003;33473;51.640;5.892;2022-12-18T00:04:06;;;
47709;PMS7003;33473;51.640;5.892;2022-12-18T00:16:29;;;
47709;PMS7003;33473;51.640;5.892;2022-12-18T00:28:51;;;
47709;PMS7003;33473;51.640;5.892;2022-12-18T00:41:13;;;
47709;PMS7003;33473;51.640;5.892;2022-12-18T00:53:35;;;
47709;PMS7003;33473;51.640;5.892;2022-12-18T01:05:58;;;
47709;PMS7003;33473;51.640;5.892;2022-12-18T01:18:20;;;
47709;PMS7003;33473;51.640;5.892;2022-12-18T01:30:42;;;
47709;PMS7003;33473;51.640;5.892;2022-12-18T01:43:04;;;
47709;PMS7003;33473;51.640;5.892;2022-12-18T01:55:27;;;
47709;PMS7003;33473;51.640;5.892;2022-12-18T02:07:49;;;
47709;PMS7003;33473;51.640;5.892;2022-12-18T02:20:11;;;
47709;PMS7003;33473;51.640;5.892;2022-12-18T02:32:33;;;
47709;PMS7003;33473;51.640;5.892;2022-12-18T02:44:56;;;
47709;PMS7003;33473;51.640;5.892;2022-12-18T02:57:18;;;
47709;PMS7003;33473;51.640;5.892;2022-12-18T03:09:40;;;
47709;PMS7003;33473;51.640;5.892;2022-12-18T03:22:02;;;
47709;PMS7003;33473;51.640;5.892;2022-12-18T03:34:24;;;
47709;PMS7003;33473;51.640;5.892;2022-12-18T03:46:47;;;
47709;PMS7003;33473;51.640;5.892;2022-12-18T03:59:09;;;
47709;PMS7003;33473;51.640;5.892;2022-12-18T04:11:31;;;
47709;PMS7003;33473;51.640;5.892;2022-12-18T04:23:53;;;
47709;PMS7003;33473;51.640;5.892;2022-12-18T04:36:16;;;
47709;PMS7003;33473;51.640;5.892;2022-12-18T04:48:38;;;
47709;PMS7003;33473;51.640;5.892;2022-12-18T05:01:00;;;
47709;PMS7003;33473;51.640;5.892;2022-12-18T05:13:22;;;
47709;PMS7003;33473;51.640;5.892;2022-12-18T05:25:44;;;
47709;PMS7003;33473;51.640;5.892;2022-12-18T05:38:07;;;
47709;PMS7003;33473;51.640;5.892;2022-12-18T05:50:29;;;
47709;PMS7003;33473;51.640;5.892;2022-12-18T06:02:51;;;
47709;PMS7003;33473;51.640;5.892;2022-12-18T06:15:13;;;
47709;PMS7003;33473;51.640;5.892;2022-12-18T06:27:36;;;
47709;PMS7003;33473;51.640;5.892;2022-12-18T06:39:58;;;
47709;PMS7003;33473;51.640;5.892;2022-12-18T06:52:20;;;
47709;PMS7003;33473;51.640;5.892;2022-12-18T07:04:42;;;
47709;PMS7003;33473;51.640;5.892;2022-12-18T07:17:05;;;
47709;PMS7003;33473;51.640;5.892;2022-12-18T07:29:27;;;
47709;PMS7003;33473;51.640;5.892;2022-12-18T07:41:49;;;
47709;PMS7003;33473;51.640;5.892;2022-12-18T07:54:11;;;
47709;PMS7003;33473;51.640;5.892;2022-12-18T08:06:33;;;
47709;PMS7003;33473;51.640;5.892;2022-12-18T08:18:56;;;
47709;PMS7003;33473;51.640;5.892;2022-12-18T08:31:18;;;
47709;PMS7003;33473;51.640;5.892;2022-12-18T08:43:40;;;
47709;PMS7003;33473;51.640;5.892;2022-12-18T08:56:30;33.01;28.46;14.29
47709;PMS7003;33473;51.640;5.892;2022-12-18T09:09:49;31.57;28.24;14.62
47709;PMS7003;33473;51.640;5.892;2022-12-18T09:23:09;31.33;27.59;14.62
47709;PMS7003;33473;51.640;5.892;2022-12-18T09:36:29;31.21;26.71;14.29
47709;PMS7003;33473;51.640;5.892;2022-12-18T09:49:48;30.01;27.04;14.4
47709;PMS7003;33473;51.640;5.892;2022-12-18T10:03:08;28.45;25.19;14.07
47709;PMS7003;33473;51.640;5.892;2022-12-18T10:16:28;28.21;25.73;13.42
47709;PMS7003;33473;51.640;5.892;2022-12-18T10:29:47;28.69;25.73;14.4
47709;PMS7003;33473;51.640;5.892;2022-12-18T10:43:07;34.94;29.11;17.67
47709;PMS7003;33473;51.640;5.892;2022-12-18T10:56:27;32.41;28.35;16.03
47709;PMS7003;33473;51.640;5.892;2022-12-18T11:09:46;40.94;33.36;20.39
47709;PMS7003;33473;51.640;5.892;2022-12-18T11:23:06;39.74;31.84;18.65
47709;PMS7003;33473;51.640;5.892;2022-12-18T11:36:26;36.74;30.2;17.99
47709;PMS7003;33473;51.640;5.892;2022-12-18T11:49:46;35.54;29.98;17.56
47709;PMS7003;33473;51.640;5.892;2022-12-18T12:03:05;28.69;25.73;14.29
47709;PMS7003;33473;51.640;5.892;2022-12-18T12:16:25;29.05;25.3;14.18
47709;PMS7003;33473;51.640;5.892;2022-12-18T12:29:45;26.05;24.1;13.31
47709;PMS7003;33473;51.640;5.892;2022-12-18T12:43:04;37.7;31.4;19.52
47709;PMS7003;33473;51.640;5.892;2022-12-18T12:56:24;32.29;27.8;16.03
47709;PMS7003;33473;51.640;5.892;2022-12-18T13:09:44;30.85;26.82;15.16
47709;PMS7003;33473;51.640;5.892;2022-12-18T13:23:03;34.1;29.0;17.45
47709;PMS7003;33473;51.640;5.892;2022-12-18T13:36:23;32.05;27.48;15.92
47709;PMS7003;33473;51.640;5.892;2022-12-18T13:49:43;44.78;36.96;21.92
47709;PMS7003;33473;51.640;5.892;2022-12-18T14:03:02;43.1;34.67;21.05
47709;PMS7003;33473;51.640;5.892;2022-12-18T14:16:22;40.34;33.36;19.52
47709;PMS7003;33473;51.640;5.892;2022-12-18T14:29:42;35.42;29.98;17.45
47709;PMS7003;33473;51.640;5.892;2022-12-18T14:43:01;31.21;27.26;15.27
47709;PMS7003;33473;51.640;5.892;2022-12-18T14:56:21;30.85;27.04;15.16
47709;PMS7003;33473;51.640;5.892;2022-12-18T15:09:41;38.18;31.62;17.99
47709;PMS7003;33473;51.640;5.892;2022-12-18T15:23:00;31.09;27.15;14.4
47709;PMS7003;33473;51.640;5.892;2022-12-18T15:36:20;32.89;27.7;15.27
47709;PMS7003;33473;51.640;5.892;2022-12-18T15:49:40;32.05;27.59;15.27
47709;PMS7003;33473;51.640;5.892;2022-12-18T16:03:00;33.13;28.13;15.38
47709;PMS7003;33473;51.640;5.892;2022-12-18T16:16:19;33.37;28.68;15.38
47709;PMS7003;33473;51.640;5.892;2022-12-18T16:29:39;35.18;29.55;16.47
47709;PMS7003;33473;51.640;5.892;2022-12-18T16:42:59;39.86;32.82;18.54
47709;PMS7003;33473;51.640;5.892;2022-12-18T16:56:18;41.18;33.8;19.63
47709;PMS7003;33473;51.640;5.892;2022-12-18T17:09:38;36.62;31.07;16.69
47709;PMS7003;33473;51.640;5.892;2022-12-18T17:22:58;37.46;30.75;17.12
47709;PMS7003;33473;51.640;5.892;2022-12-18T17:36:17;38.18;31.95;17.78
47709;PMS7003;33473;51.640;5.892;2022-12-18T17:49:37;38.3;31.95;17.67
47709;PMS7003;33473;51.640;5.892;2022-12-18T18:02:57;39.98;32.6;18.43
47709;PMS7003;33473;51.640;5.892;2022-12-18T18:16:16;36.62;30.75;16.58
47709;PMS7003;33473;51.640;5.892;2022-12-18T18:29:36;36.02;30.09;16.9
47709;PMS7003;33473;51.640;5.892;2022-12-18T18:42:56;40.7;33.25;18.76
47709;PMS7003;33473;51.640;5.892;2022-12-18T18:56:15;37.46;31.4;17.45
47709;PMS7003;33473;51.640;5.892;2022-12-18T19:09:35;39.98;32.93;18.87
47709;PMS7003;33473;51.640;5.892;2022-12-18T19:22:55;40.7;33.36;18.87
47709;PMS7003;33473;51.640;5.892;2022-12-18T19:36:14;48.86;39.36;22.14
47709;PMS7003;33473;51.640;5.892;2022-12-18T19:49:34;37.22;30.96;17.34
47709;PMS7003;33473;51.640;5.892;2022-12-18T20:02:54;37.82;31.51;17.12
47709;PMS7003;33473;51.640;5.892;2022-12-18T20:16:13;38.06;31.73;17.34
47709;PMS7003;33473;51.640;5.892;2022-12-18T20:29:33;38.9;31.95;17.56
47709;PMS7003;33473;51.640;5.892;2022-12-18T20:42:53;37.94;31.51;17.23
47709;PMS7003;33473;51.640;5.892;2022-12-18T20:56:12;39.98;32.49;17.89
47709;PMS7003;33473;51.640;5.892;2022-12-18T21:09:32;40.22;32.82;18.43
47709;PMS7003;33473;51.640;5.892;2022-12-18T21:22:52;40.82;32.93;18.21
47709;PMS7003;33473;51.640;5.892;2022-12-18T21:36:11;42.86;34.78;18.87
47709;PMS7003;33473;51.640;5.892;2022-12-18T21:49:31;46.46;37.4;19.63
47709;PMS7003;33473;51.640;5.892;2022-12-18T22:02:51;45.98;38.49;19.96
47709;PMS7003;33473;51.640;5.892;2022-12-18T22:16:10;41.42;33.91;18.32
47709;PMS7003;33473;51.640;5.892;2022-12-18T22:29:30;43.82;34.89;19.08
47709;PMS7003;33473;51.640;5.892;2022-12-18T22:42:50;43.82;34.45;18.76
47709;PMS7003;33473;51.640;5.892;2022-12-18T22:56:09;43.46;35.0;18.87
47709;PMS7003;33473;51.640;5.892;2022-12-18T23:09:29;43.22;35.0;19.19
47709;PMS7003;33473;51.640;5.892;2022-12-18T23:22:49;44.18;34.78;18.98
47709;PMS7003;33473;51.640;5.892;2022-12-18T23:36:08;42.98;34.78;18.54
47709;PMS7003;33473;51.640;5.892;2022-12-18T23:49:28;42.62;34.13;18.65
